Time;durP1;ratioP1;P1;durP2;ratioP2;P2;SDS_P1;SDS_P2;PMS_P1;PMS_P2;Temp;Humidity;BMP_temperature;BMP_pressure;BME280_temperature;BME280_humidity;BME280_pressure;Samples;Min_cycle;Max_cycle;Signal;HPM_P1;HPM_P2
2023/10/03 00:01:29;;;;;;;8.63;5.50;;;18.10;99.90;;;;;;4845360;29;20097;-74
2023/10/03 00:03:55;;;;;;;;;;;18.10;99.90;;;;;;4859940;29;20045;-74
2023/10/03 00:06:21;;;;;;;8.18;4.97;;;18.10;99.90;;;;;;4845123;29;19960;-74
2023/10/03 00:08:47;;;;;;;;;;;18.10;99.90;;;;;;4845144;29;20080;-74
2023/10/03 00:11:18;;;;;;;8.20;5.05;;;18.00;99.90;;;;;;4844878;29;20287;-74
2023/10/03 00:13:43;;;;;;;9.73;5.10;;;18.00;99.90;;;;;;4842976;29;20497;-74
2023/10/03 00:16:09;;;;;;;;;;;18.00;99.90;;;;;;4845623;29;20140;-76
2023/10/03 00:18:35;;;;;;;9.10;5.40;;;18.10;99.90;;;;;;4844504;29;20352;-76
2023/10/03 00:21:01;;;;;;;;;;;18.00;99.90;;;;;;4845730;29;20053;-76
2023/10/03 00:23:27;;;;;;;7.13;4.57;;;18.00;99.90;;;;;;4859022;29;20270;-76
2023/10/03 00:25:54;;;;;;;;;;;18.00;99.90;;;;;;4830266;29;20065;-76
2023/10/03 00:28:20;;;;;;;7.68;5.07;;;18.00;99.90;;;;;;4860158;29;20008;-76
2023/10/03 00:30:48;;;;;;;;;;;18.00;99.90;;;;;;4857072;29;20120;-76
2023/10/03 00:33:13;;;;;;;10.68;6.20;;;17.90;99.90;;;;;;4860077;29;19951;-76
2023/10/03 00:35:42;;;;;;;;;;;18.00;99.90;;;;;;4837153;29;20095;-76
2023/10/03 00:38:13;;;;;;;15.48;9.18;;;18.00;99.90;;;;;;4844671;29;20034;-75
2023/10/03 00:40:40;;;;;;;14.48;8.10;;;18.00;99.90;;;;;;4860238;29;20069;-73
2023/10/03 00:43:07;;;;;;;15.15;8.02;;;17.90;99.90;;;;;;4843480;29;20069;-74
2023/10/03 00:45:34;;;;;;;11.90;7.03;;;17.90;99.90;;;;;;4844257;29;20451;-73
2023/10/03 00:48:11;;;;;;;14.70;9.00;;;17.90;99.90;;;;;;4844135;29;20466;-74
2023/10/03 00:50:38;;;;;;;20.30;11.07;;;17.90;99.90;;;;;;4860579;29;20505;-74
2023/10/03 00:53:09;;;;;;;15.93;9.32;;;17.90;99.90;;;;;;4843231;29;20054;-74
2023/10/03 00:55:41;;;;;;;14.45;8.60;;;17.80;99.90;;;;;;4859793;29;20396;-74
2023/10/03 01:00:38;;;;;;;14.10;8.70;;;17.80;99.90;;;;;;4859596;29;20402;-74
2023/10/03 01:03:06;;;;;;;15.45;9.50;;;17.70;99.90;;;;;;4843451;29;20443;-74
2023/10/03 01:05:33;;;;;;;13.00;8.45;;;17.70;99.90;;;;;;4842648;29;20045;-74
2023/10/03 01:07:59;;;;;;;16.10;8.68;;;17.70;99.90;;;;;;4843739;29;20061;-74
2023/10/03 01:10:25;;;;;;;;;;;17.60;99.90;;;;;;4844063;29;20398;-74
2023/10/03 01:12:54;;;;;;;14.50;8.70;;;17.70;99.90;;;;;;4842806;29;19995;-74
2023/10/03 01:15:20;;;;;;;11.85;7.10;;;17.60;99.90;;;;;;4858428;29;20401;-74
2023/10/03 01:17:57;;;;;;;10.48;6.75;;;17.60;99.90;;;;;;4857575;29;20074;-74
2023/10/03 01:20:40;;;;;;;12.00;7.03;;;17.50;99.90;;;;;;4858483;29;20065;-74
2023/10/03 01:23:10;;;;;;;11.23;6.88;;;17.60;99.90;;;;;;4843537;29;20094;-74
2023/10/03 01:25:42;;;;;;;12.10;7.30;;;17.50;99.90;;;;;;4855684;29;20055;-74
2023/10/03 01:28:09;;;;;;;10.07;6.65;;;17.50;99.90;;;;;;4843853;29;20109;-74
2023/10/03 01:30:36;;;;;;;10.85;6.63;;;17.50;99.90;;;;;;4860976;29;20124;-74
2023/10/03 01:33:02;;;;;;;12.27;6.70;;;17.50;99.90;;;;;;4843532;29;20057;-74
2023/10/03 01:35:28;;;;;;;11.60;6.45;;;17.50;99.90;;;;;;4865662;29;20442;-74
2023/10/03 01:37:54;;;;;;;;;;;17.50;99.90;;;;;;4843862;29;20049;-74
2023/10/03 01:40:20;;;;;;;10.20;6.05;;;17.50;99.90;;;;;;4858982;29;20014;-74
2023/10/03 01:42:47;;;;;;;;;;;17.50;99.90;;;;;;4843956;29;20435;-74
2023/10/03 01:45:19;;;;;;;11.32;6.50;;;17.50;99.90;;;;;;4843463;29;20022;-74
2023/10/03 01:47:47;;;;;;;11.75;6.43;;;17.50;99.90;;;;;;4840940;29;20497;-74
2023/10/03 01:50:14;;;;;;;12.00;6.80;;;17.50;99.90;;;;;;4842685;29;20110;-74
2023/10/03 01:52:43;;;;;;;15.32;8.57;;;17.50;99.90;;;;;;4857974;29;20056;-74
2023/10/03 01:55:13;;;;;;;14.20;8.10;;;17.50;99.90;;;;;;4843036;29;20504;-74
2023/10/03 01:57:40;;;;;;;13.90;8.05;;;17.50;99.90;;;;;;4857907;29;20042;-74
2023/10/03 02:00:28;;;;;;;13.50;7.93;;;17.50;99.90;;;;;;4842856;29;20040;-74
2023/10/03 02:03:05;;;;;;;14.15;7.55;;;17.50;99.90;;;;;;4832477;29;20058;-74
2023/10/03 02:05:36;;;;;;;12.82;7.32;;;17.50;99.90;;;;;;4848385;29;20571;-74
2023/10/03 02:08:16;;;;;;;14.40;7.40;;;17.50;99.90;;;;;;4842934;29;20053;-74
2023/10/03 02:10:49;;;;;;;15.48;8.70;;;17.60;99.90;;;;;;4859042;29;20054;-74
2023/10/03 02:13:17;;;;;;;15.32;8.60;;;17.60;99.90;;;;;;4843231;29;20053;-74
2023/10/03 02:15:50;;;;;;;15.82;8.93;;;17.60;99.90;;;;;;4842019;29;20752;-74
2023/10/03 02:18:18;;;;;;;18.92;10.10;;;17.60;99.90;;;;;;4842531;29;20053;-74
2023/10/03 02:20:53;;;;;;;18.40;9.57;;;17.60;99.90;;;;;;4842896;29;20033;-74
2023/10/03 02:23:24;;;;;;;16.08;8.27;;;17.60;99.90;;;;;;4826725;29;20069;-74
2023/10/03 02:25:51;;;;;;;14.52;8.63;;;17.70;99.90;;;;;;4829778;29;20046;-74
2023/10/03 02:28:17;;;;;;;14.32;8.27;;;17.70;99.90;;;;;;4857477;29;20401;-74
2023/10/03 02:30:51;;;;;;;14.88;8.45;;;17.70;99.90;;;;;;4848876;29;20514;-74
2023/10/03 02:33:17;;;;;;;17.05;9.40;;;17.70;99.90;;;;;;4857854;29;20470;-74
2023/10/03 02:35:47;;;;;;;14.30;7.95;;;17.70;99.90;;;;;;4841974;29;20048;-74
2023/10/03 02:38:30;;;;;;;14.50;8.15;;;17.70;99.90;;;;;;4842142;29;20046;-74
2023/10/03 02:40:59;;;;;;;14.85;8.93;;;17.70;99.90;;;;;;4841693;29;20045;-74
2023/10/03 02:43:31;;;;;;;14.07;7.82;;;17.70;99.90;;;;;;4857305;29;20049;-74
2023/10/03 02:45:58;;;;;;;13.40;7.55;;;17.70;99.90;;;;;;4857286;29;20061;-74
2023/10/03 02:48:24;;;;;;;15.45;8.75;;;17.60;99.90;;;;;;4826580;29;20094;-74
2023/10/03 02:50:50;;;;;;;;;;;17.70;99.90;;;;;;4852341;29;20052;-74
2023/10/03 02:53:20;;;;;;;17.40;9.45;;;17.70;99.90;;;;;;4857470;29;19924;-74
2023/10/03 02:55:51;;;;;;;14.70;8.10;;;17.80;99.90;;;;;;4841144;29;20049;-74
2023/10/03 02:58:19;;;;;;;15.75;8.25;;;17.80;99.90;;;;;;4857518;29;20494;-74
2023/10/03 03:00:46;;;;;;;14.45;7.97;;;17.70;99.90;;;;;;4827519;29;20060;-74
2023/10/03 03:03:13;;;;;;;15.23;8.50;;;17.70;99.90;;;;;;4841703;29;20369;-73
2023/10/03 03:05:39;;;;;;;15.90;8.63;;;17.80;99.90;;;;;;4823739;29;20045;-74
2023/10/03 03:10:51;;;;;;;16.48;9.13;;;17.80;99.90;;;;;;4841948;29;20505;-74
2023/10/03 03:13:18;;;;;;;14.50;8.35;;;17.70;99.90;;;;;;4856557;29;20405;-74
2023/10/03 03:16:00;;;;;;;15.98;8.30;;;17.80;99.90;;;;;;4857181;29;20097;-74
2023/10/03 03:18:31;;;;;;;18.10;9.40;;;17.80;99.90;;;;;;4839837;29;20049;-74
2023/10/03 03:20:58;;;;;;;18.25;9.80;;;17.80;99.90;;;;;;4857111;29;20057;-73
2023/10/03 03:23:36;;;;;;;16.27;9.35;;;17.80;99.90;;;;;;4856915;29;20508;-74
2023/10/03 03:28:43;;;;;;;17.67;9.27;;;17.70;99.90;;;;;;4827535;29;20041;-73
2023/10/03 03:31:17;;;;;;;17.55;9.38;;;17.70;99.90;;;;;;4841768;29;20064;-74
2023/10/03 03:33:45;;;;;;;15.70;8.32;;;17.70;99.90;;;;;;4841685;29;20060;-74
2023/10/03 03:36:17;;;;;;;15.13;8.45;;;17.70;99.90;;;;;;4846505;29;20487;-74
2023/10/03 03:38:47;;;;;;;18.27;9.70;;;17.70;99.90;;;;;;4840245;29;20052;-74
2023/10/03 03:41:13;;;;;;;14.57;8.82;;;17.70;99.90;;;;;;4841500;29;20045;-74
2023/10/03 03:43:39;;;;;;;14.65;8.07;;;17.70;99.90;;;;;;4841781;29;20051;-73
2023/10/03 03:46:05;;;;;;;;;;;17.70;99.90;;;;;;4842080;29;20088;-75
2023/10/03 03:48:34;;;;;;;17.05;9.15;;;17.70;99.90;;;;;;4841960;29;19924;-76
2023/10/03 03:51:00;;;;;;;16.02;8.88;;;17.60;99.90;;;;;;4864881;29;20061;-75
2023/10/03 03:53:26;;;;;;;15.32;7.88;;;17.70;99.90;;;;;;4840139;29;20061;-76
2023/10/03 03:55:51;;;;;;;;;;;17.70;99.90;;;;;;4841899;29;20042;-76
2023/10/03 03:58:20;;;;;;;20.85;11.18;;;17.80;99.90;;;;;;4841097;29;19932;-75
2023/10/03 04:00:51;;;;;;;19.02;9.85;;;17.80;99.90;;;;;;4825980;29;20050;-75
2023/10/03 04:03:18;;;;;;;16.55;9.10;;;18.00;99.90;;;;;;4831260;29;20120;-76
2023/10/03 04:05:46;;;;;;;15.73;8.77;;;18.00;99.90;;;;;;4820192;29;20523;-75
2023/10/03 04:08:12;;;;;;;14.73;8.20;;;18.10;99.90;;;;;;4824667;29;20045;-75
2023/10/03 04:10:38;;;;;;;;;;;18.10;99.90;;;;;;4841369;29;20049;-75
2023/10/03 04:13:10;;;;;;;16.95;8.90;;;18.10;99.90;;;;;;4836977;29;19936;-76
2023/10/03 04:15:40;;;;;;;20.00;9.80;;;18.10;99.90;;;;;;4843060;29;20530;-75
2023/10/03 04:18:09;;;;;;;18.10;9.45;;;18.10;99.90;;;;;;4839395;29;20107;-75
2023/10/03 04:20:38;;;;;;;19.23;9.77;;;18.20;99.90;;;;;;4857099;29;20106;-75
2023/10/03 04:23:05;;;;;;;19.30;9.98;;;18.20;99.90;;;;;;4840413;29;20085;-75
2023/10/03 04:25:32;;;;;;;19.05;10.43;;;18.20;99.90;;;;;;4839762;29;20505;-75
2023/10/03 04:27:58;;;;;;;19.45;10.40;;;18.20;99.90;;;;;;4855666;29;20517;-75
2023/10/03 04:30:25;;;;;;;;;;;18.20;99.90;;;;;;4826864;29;20049;-75
2023/10/03 04:32:52;;;;;;;;;;;18.30;99.90;;;;;;4844076;29;20007;-75
2023/10/03 04:35:19;;;;;;;;;;;18.30;99.90;;;;;;4843635;29;20003;-75
2023/10/03 04:37:46;;;;;;;20.85;10.60;;;18.30;99.90;;;;;;4844333;29;19928;-75
2023/10/03 04:40:15;;;;;;;16.50;9.48;;;18.30;99.90;;;;;;4844353;29;20042;-75
2023/10/03 04:42:44;;;;;;;20.58;10.68;;;18.30;99.90;;;;;;4828127;29;20405;-75
2023/10/03 04:45:11;;;;;;;18.80;10.10;;;18.30;99.90;;;;;;4860671;29;20162;-74
2023/10/03 04:47:38;;;;;;;21.40;11.75;;;18.30;99.90;;;;;;4844474;29;20454;-75
2023/10/03 04:50:04;;;;;;;21.63;11.02;;;18.40;99.90;;;;;;4841201;29;20418;-75
2023/10/03 04:52:30;;;;;;;20.52;11.23;;;18.40;99.90;;;;;;4828090;29;20057;-75
2023/10/03 04:54:57;;;;;;;;;;;18.50;99.90;;;;;;4857545;29;20068;-75
2023/10/03 04:57:26;;;;;;;21.65;11.43;;;18.60;99.90;;;;;;4843875;29;20729;-75
2023/10/03 04:59:53;;;;;;;20.92;11.95;;;18.60;99.90;;;;;;4842665;29;20081;-75
2023/10/03 05:02:19;;;;;;;19.27;10.20;;;18.70;99.90;;;;;;4827630;29;20045;-74
2023/10/03 05:04:44;;;;;;;;;;;18.70;99.90;;;;;;4827751;29;20110;-75
2023/10/03 05:07:10;;;;;;;18.45;9.95;;;18.70;99.90;;;;;;4860233;29;19928;-74
2023/10/03 05:09:36;;;;;;;20.73;11.10;;;18.80;99.90;;;;;;4812642;29;20041;-74
2023/10/03 05:12:04;;;;;;;;;;;18.80;99.90;;;;;;4858441;29;20045;-75
2023/10/03 05:14:31;;;;;;;21.77;10.77;;;18.80;99.90;;;;;;4843195;29;19999;-75
2023/10/03 05:17:00;;;;;;;21.45;10.60;;;18.90;99.90;;;;;;4841388;29;20053;-75
2023/10/03 05:19:25;;;;;;;19.48;9.88;;;18.90;99.90;;;;;;4842228;29;20401;-75
2023/10/03 05:21:52;;;;;;;;;;;18.90;99.90;;;;;;4827687;29;20058;-74
2023/10/03 05:24:19;;;;;;;19.23;10.13;;;18.90;99.90;;;;;;4827002;29;19924;-75
2023/10/03 05:26:45;;;;;;;21.20;10.82;;;19.00;99.90;;;;;;4843238;29;20042;-75
2023/10/03 05:29:10;;;;;;;;;;;19.00;99.90;;;;;;4843849;29;20386;-76
2023/10/03 05:31:40;;;;;;;18.67;9.77;;;19.00;99.90;;;;;;4825042;29;19943;-75
2023/10/03 05:34:07;;;;;;;17.88;9.52;;;19.00;99.90;;;;;;4854535;29;20045;-75
2023/10/03 05:36:33;;;;;;;16.58;8.38;;;19.10;99.90;;;;;;4841850;29;20060;-76
2023/10/03 05:38:59;;;;;;;;;;;19.10;99.90;;;;;;4843382;29;20049;-76
2023/10/03 05:41:25;;;;;;;;;;;19.20;99.90;;;;;;4845355;29;20381;-75
2023/10/03 05:43:50;;;;;;;;;;;19.20;99.90;;;;;;4843212;29;19926;-75
2023/10/03 05:46:16;;;;;;;;;;;19.20;99.90;;;;;;4842286;29;19924;-75
2023/10/03 05:48:43;;;;;;;;;;;19.20;99.90;;;;;;4841642;29;19975;-76
2023/10/03 05:51:08;;;;;;;;;;;19.20;99.90;;;;;;4841826;29;19976;-75
2023/10/03 05:53:34;;;;;;;;;;;19.20;99.90;;;;;;4841849;29;19928;-76
2023/10/03 05:56:00;;;;;;;;;;;19.20;99.90;;;;;;4842367;29;19924;-76
2023/10/03 05:58:27;;;;;;;;;;;19.20;99.90;;;;;;4842542;29;19974;-76
2023/10/03 06:00:55;;;;;;;;;;;19.20;99.90;;;;;;4840302;29;19984;-81
2023/10/03 06:03:21;;;;;;;;;;;19.20;99.90;;;;;;4857231;29;20293;-74
2023/10/03 06:05:46;;;;;;;;;;;19.20;99.90;;;;;;4858013;29;19998;-74
2023/10/03 06:08:12;;;;;;;;;;;19.20;99.90;;;;;;4841906;29;19967;-74
2023/10/03 06:10:39;;;;;;;;;;;19.20;99.90;;;;;;4839566;29;19935;-74
2023/10/03 06:13:10;;;;;;;;;;;19.20;99.90;;;;;;4839871;29;19923;-74
2023/10/03 06:15:40;;;;;;;;;;;19.20;99.90;;;;;;4840294;29;20340;-73
2023/10/03 06:18:05;;;;;;;;;;;19.20;99.90;;;;;;4840973;29;20327;-74
2023/10/03 06:20:31;;;;;;;;;;;19.20;99.90;;;;;;4843386;29;19924;-76
2023/10/03 06:22:57;;;;;;;;;;;19.20;99.90;;;;;;4843032;29;19959;-76
2023/10/03 06:25:24;;;;;;;;;;;19.20;99.90;;;;;;4842947;29;20386;-76
2023/10/03 06:27:49;;;;;;;;;;;19.20;99.90;;;;;;4842464;29;19920;-75
2023/10/03 06:30:15;;;;;;;;;;;19.30;99.90;;;;;;4856253;29;19935;-76
2023/10/03 06:32:41;;;;;;;;;;;19.20;99.90;;;;;;4841721;29;19924;-75
2023/10/03 06:35:09;;;;;;;;;;;19.20;99.90;;;;;;4842398;29;19939;-76
2023/10/03 06:37:34;;;;;;;;;;;19.10;99.90;;;;;;4842386;29;20447;-76
2023/10/03 06:40:01;;;;;;;;;;;19.10;99.90;;;;;;4839721;29;20019;-76
2023/10/03 06:42:27;;;;;;;;;;;19.00;99.90;;;;;;4840060;29;19979;-75
2023/10/03 06:44:52;;;;;;;;;;;18.90;99.90;;;;;;4842151;29;20012;-75
2023/10/03 06:47:20;;;;;;;;;;;18.90;99.90;;;;;;4841786;29;20040;-75
2023/10/03 06:49:46;;;;;;;;;;;18.90;99.90;;;;;;4841526;29;20007;-75
2023/10/03 06:52:11;;;;;;;;;;;18.80;99.90;;;;;;4842601;29;20023;-75
2023/10/03 06:54:38;;;;;;;;;;;18.80;99.90;;;;;;4842376;29;19930;-75
2023/10/03 06:57:04;;;;;;;;;;;18.80;99.90;;;;;;4843062;29;19976;-75
2023/10/03 06:59:30;;;;;;;;;;;18.70;99.90;;;;;;4842390;29;19919;-75
2023/10/03 07:01:56;;;;;;;;;;;18.70;99.90;;;;;;4842593;29;19928;-75
2023/10/03 07:04:22;;;;;;;;;;;18.60;99.90;;;;;;4842676;29;19987;-76
2023/10/03 07:06:50;;;;;;;;;;;18.50;99.90;;;;;;4842538;29;20122;-75
2023/10/03 07:09:17;;;;;;;;;;;18.40;99.90;;;;;;4842089;29;19924;-75
2023/10/03 07:11:42;;;;;;;;;;;18.30;99.90;;;;;;4842589;29;20272;-75
2023/10/03 07:14:12;;;;;;;;;;;18.30;99.90;;;;;;4842599;29;19920;-76
2023/10/03 07:16:38;;;;;;;;;;;18.20;99.90;;;;;;4842216;29;19924;-75
2023/10/03 07:19:04;;;;;;;;;;;18.10;99.90;;;;;;4842023;29;19974;-75
2023/10/03 07:21:30;;;;;;;;;;;18.20;99.90;;;;;;4842195;29;20269;-76
2023/10/03 07:23:56;;;;;;;;;;;18.20;99.90;;;;;;4842018;29;19928;-75
2023/10/03 07:26:22;;;;;;;;;;;18.10;99.90;;;;;;4842292;29;19920;-75
2023/10/03 07:28:48;;;;;;;;;;;18.10;99.90;;;;;;4842481;29;19980;-75
2023/10/03 07:31:14;;;;;;;;;;;18.00;99.90;;;;;;4842190;29;20397;-75
2023/10/03 07:33:43;;;;;;;;;;;17.90;99.90;;;;;;4842366;29;19920;-74
2023/10/03 07:36:09;;;;;;;;;;;17.90;99.90;;;;;;4842446;29;19928;-74
2023/10/03 07:38:35;;;;;;;;;;;17.90;99.90;;;;;;4842032;29;20372;-76
2023/10/03 07:41:13;;;;;;;;;;;17.80;99.90;;;;;;4842136;29;19929;-75
2023/10/03 07:43:39;;;;;;;;;;;17.70;99.90;;;;;;4842345;29;19927;-75
2023/10/03 07:46:05;;;;;;;;;;;17.70;99.90;;;;;;4842037;29;19939;-75
2023/10/03 07:48:30;;;;;;;;;;;17.60;99.90;;;;;;4842315;29;19920;-75
2023/10/03 07:50:56;;;;;;;;;;;17.50;99.90;;;;;;4841858;29;20269;-74
2023/10/03 07:53:22;;;;;;;;;;;17.50;99.90;;;;;;4842204;29;19926;-74
2023/10/03 07:55:47;;;;;;;;;;;17.40;99.90;;;;;;4841869;29;19946;-74
2023/10/03 07:58:14;;;;;;;;;;;17.30;99.90;;;;;;4843247;29;20071;-74
2023/10/03 08:00:40;;;;;;;;;;;17.30;99.90;;;;;;4845911;29;19920;-74
2023/10/03 08:03:08;;;;;;;;;;;17.20;99.90;;;;;;4845658;29;20022;-74
2023/10/03 08:05:34;;;;;;;;;;;17.10;99.90;;;;;;4845842;29;20364;-74
2023/10/03 08:08:02;;;;;;;;;;;17.10;99.90;;;;;;4845487;29;19931;-74
2023/10/03 08:10:30;;;;;;;;;;;16.90;99.90;;;;;;4845881;29;19967;-73
2023/10/03 08:12:57;;;;;;;;;;;16.80;99.90;;;;;;4845286;29;19924;-74
2023/10/03 08:15:31;;;;;;;;;;;16.80;99.90;;;;;;4845514;29;19971;-74
2023/10/03 08:17:57;;;;;;;;;;;16.70;99.90;;;;;;4845154;29;20388;-74
2023/10/03 08:20:23;;;;;;;;;;;16.60;99.90;;;;;;4845478;29;20337;-74
2023/10/03 08:22:52;;;;;;;;;;;16.60;99.90;;;;;;4845293;29;19924;-74
2023/10/03 08:25:22;;;;;;;;;;;16.60;99.90;;;;;;4845160;29;19998;-74
2023/10/03 08:27:52;;;;;;;;;;;16.60;99.90;;;;;;4829079;29;19957;-74
2023/10/03 08:30:30;;;;;;;;;;;16.50;99.90;;;;;;4844967;29;19920;-73
2023/10/03 08:32:57;;;;;;;;;;;16.50;99.90;;;;;;4845059;29;19924;-74
2023/10/03 08:35:35;;;;;;;;;;;16.50;99.90;;;;;;4844869;29;19924;-74
2023/10/03 08:38:05;;;;;;;;;;;16.50;99.90;;;;;;4845031;29;19931;-73
2023/10/03 08:40:41;;;;;;;;;;;16.40;99.90;;;;;;4844760;29;20360;-74
2023/10/03 08:43:10;;;;;;;;;;;16.40;99.90;;;;;;4845127;29;19920;-73
2023/10/03 08:45:41;;;;;;;;;;;16.40;99.90;;;;;;4829135;29;20522;-74
2023/10/03 08:48:07;;;;;;;;;;;16.50;99.90;;;;;;4844962;29;19920;-73
2023/10/03 08:50:52;;;;;;;;;;;16.50;99.90;;;;;;4844746;29;19963;-74
2023/10/03 08:53:27;;;;;;;;;;;16.50;99.90;;;;;;4844843;29;19927;-75
2023/10/03 08:56:02;;;;;;;;;;;16.50;99.90;;;;;;4859700;29;19924;-74
2023/10/03 08:58:28;;;;;;;;;;;16.40;99.90;;;;;;4844679;29;19928;-74
2023/10/03 09:01:02;;;;;;;;;;;16.30;99.90;;;;;;4844520;29;19920;-74
2023/10/03 09:03:47;;;;;;;;;;;16.20;99.90;;;;;;4845055;29;20007;-74
2023/10/03 09:06:23;;;;;;;;;;;15.90;99.90;;;;;;4859851;29;19969;-74
2023/10/03 09:08:50;;;;;;;;;;;15.80;99.90;;;;;;4844198;29;19935;-74
2023/10/03 09:11:18;;;;;;;;;;;15.60;99.90;;;;;;4859097;29;20295;-74
2023/10/03 09:13:47;;;;;;;;;;;15.50;99.90;;;;;;4859957;29;19924;-74
2023/10/03 09:16:15;;;;;;;;;;;15.50;99.90;;;;;;4844634;29;19920;-74
2023/10/03 09:18:41;;;;;;;;;;;15.40;99.90;;;;;;4859491;29;19927;-74
2023/10/03 09:21:07;;;;;;;;;;;15.40;99.90;;;;;;4844582;29;19996;-74
2023/10/03 09:23:40;;;;;;;;;;;15.40;99.90;;;;;;4825526;29;19924;-74
2023/10/03 09:26:09;;;;;;;;;;;15.40;99.90;;;;;;4835819;29;20281;-74
2023/10/03 09:28:40;;;;;;;;;;;15.40;99.90;;;;;;4859330;29;20038;-74
2023/10/03 09:31:09;;;;;;;;;;;15.40;99.90;;;;;;4843944;29;20395;-74
2023/10/03 09:33:41;;;;;;;;;;;15.30;99.90;;;;;;4844060;29;19920;-74
2023/10/03 09:36:08;;;;;;;;;;;15.30;99.90;;;;;;4843894;29;19930;-74
2023/10/03 09:38:42;;;;;;;;;;;15.30;99.90;;;;;;4843924;29;20035;-74
2023/10/03 09:41:08;;;;;;;;;;;15.30;99.90;;;;;;4844233;29;19980;-74
2023/10/03 09:43:35;;;;;;;;;;;15.20;99.90;;;;;;4843852;29;20392;-74
2023/10/03 09:46:01;;;;;;;;;;;15.10;99.90;;;;;;4844097;29;19924;-74
2023/10/03 09:48:27;;;;;;;;;;;15.10;99.90;;;;;;4825582;29;19925;-74
2023/10/03 09:50:53;;;;;;;;;;;15.10;99.90;;;;;;4857972;29;19947;-74
2023/10/03 09:53:19;;;;;;;;;;;15.10;99.90;;;;;;4843756;29;20007;-74
2023/10/03 09:55:48;;;;;;;;;;;15.10;99.90;;;;;;4843950;29;19931;-74
2023/10/03 09:58:21;;;;;;;;;;;15.10;99.90;;;;;;4843614;29;19928;-74
2023/10/03 10:00:52;;;;;;;;;;;15.10;99.90;;;;;;4843308;29;19974;-74
2023/10/03 10:03:25;;;;;;;;;;;15.00;99.90;;;;;;4840469;29;20390;-74
2023/10/03 10:06:13;;;;;;;;;;;15.00;99.90;;;;;;4854254;29;19967;-74
2023/10/03 10:08:54;;;;;;;;;;;15.00;99.90;;;;;;4843426;29;19920;-74
2023/10/03 10:11:22;;;;;;;;;;;15.00;99.90;;;;;;4842875;29;19948;-74
2023/10/03 10:14:01;;;;;;;;;;;14.90;99.90;;;;;;4858936;29;19928;-74
2023/10/03 10:16:28;;;;;;;;;;;15.00;99.90;;;;;;4842888;29;19944;-74
2023/10/03 10:18:55;;;;;;;;;;;14.90;99.90;;;;;;4858406;29;20007;-74
2023/10/03 10:21:39;;;;;;;;;;;15.00;99.90;;;;;;4858743;29;19988;-74
2023/10/03 10:24:11;;;;;;;;;;;15.10;99.90;;;;;;4828988;29;20071;-74
2023/10/03 10:26:38;;;;;;;;;;;15.10;99.90;;;;;;4842902;29;19931;-74
2023/10/03 10:29:14;;;;;;;;;;;15.00;99.90;;;;;;4843164;29;20059;-74
2023/10/03 10:31:44;;;;;;;;;;;14.90;99.90;;;;;;4843035;29;19931;-74
2023/10/03 10:34:22;;;;;;;;;;;14.80;99.90;;;;;;4843419;29;19951;-74
2023/10/03 10:37:07;;;;;;;;;;;14.90;99.90;;;;;;4858256;29;19928;-74
2023/10/03 10:39:52;;;;;;;;;;;15.00;99.90;;;;;;4843104;29;19928;-73
2023/10/03 10:42:20;;;;;;;;;;;15.10;99.90;;;;;;4842702;29;20337;-73
2023/10/03 10:45:16;;;;;;;;;;;15.20;99.90;;;;;;4843131;29;19928;-73
2023/10/03 10:47:54;;;;;;;;;;;15.20;99.90;;;;;;4816848;29;19920;-74
2023/10/03 10:50:25;;;;;;;;;;;15.20;99.90;;;;;;4842651;29;19923;-74
2023/10/03 10:53:02;;;;;;;;;;;15.30;99.90;;;;;;4842855;29;19927;-74
2023/10/03 10:55:28;;;;;;;;;;;15.30;99.90;;;;;;4842825;29;19924;-74
2023/10/03 10:58:03;;;;;;;;;;;15.30;99.90;;;;;;4842604;29;20014;-74
2023/10/03 11:00:29;;;;;;;;;;;15.30;99.90;;;;;;4827720;29;19920;-74
2023/10/03 11:02:55;;;;;;;;;;;15.30;99.90;;;;;;4842621;29;20403;-74
2023/10/03 11:05:20;;;;;;;;;;;15.30;99.90;;;;;;4842790;29;19927;-74
2023/10/03 11:07:53;;;;;;;;;;;15.20;99.90;;;;;;4842466;29;20318;-74
2023/10/03 11:10:21;;;;;;;;;;;15.00;99.90;;;;;;4842599;29;19955;-74
2023/10/03 11:12:56;;;;;;;;;;;14.90;99.90;;;;;;4842331;29;19928;-74
2023/10/03 11:15:22;;;;;;;;;;;14.80;99.90;;;;;;4830114;29;19955;-74
2023/10/03 11:17:48;;;;;;;;;;;14.90;99.90;;;;;;4842311;29;20360;-74
2023/10/03 11:20:16;;;;;;;;;;;14.90;99.90;;;;;;4824081;29;19924;-74
2023/10/03 11:22:43;;;;;;;;;;;14.90;99.90;;;;;;4849179;29;19924;-74
2023/10/03 11:25:10;;;;;;;;;;;14.90;99.90;;;;;;4842013;29;20315;-74
2023/10/03 11:27:36;;;;;;;;;;;14.90;99.90;;;;;;4842214;29;19924;-74
2023/10/03 11:30:15;;;;;;;;;;;14.90;99.90;;;;;;4825284;29;19992;-74
2023/10/03 11:32:41;;;;;;;;;;;14.90;99.90;;;;;;4841735;29;20285;-74
2023/10/03 11:35:17;;;;;;;;;;;15.00;99.90;;;;;;4842099;29;19968;-74
2023/10/03 11:37:46;;;;;;;;;;;15.10;99.90;;;;;;4842156;29;19924;-74
2023/10/03 11:40:15;;;;;;;;;;;15.20;99.90;;;;;;4842428;29;19920;-74
2023/10/03 11:42:53;;;;;;;;;;;15.30;99.90;;;;;;4842285;29;19992;-74
2023/10/03 11:45:23;;;;;;;;;;;15.30;99.90;;;;;;4841991;29;19928;-74
2023/10/03 11:48:02;;;;;;;;;;;15.30;99.90;;;;;;4842007;29;20364;-74
2023/10/03 11:50:28;;;;;;;;;;;15.30;99.90;;;;;;4841937;29;19927;-74
2023/10/03 11:52:56;;;;;;;;;;;15.30;99.90;;;;;;4823685;29;19967;-74
2023/10/03 11:55:23;;;;;;;;;;;15.30;99.90;;;;;;4836256;29;19924;-74
2023/10/03 11:57:49;;;;;;;;;;;15.30;99.90;;;;;;4856998;29;19935;-74
2023/10/03 12:00:15;;;;;;;;;;;15.30;99.90;;;;;;4841914;29;19923;-74
2023/10/03 12:02:41;;;;;;;;;;;15.30;99.90;;;;;;4841900;29;19926;-74
2023/10/03 12:05:09;;;;;;;;;;;15.40;99.90;;;;;;4827022;29;19924;-75
2023/10/03 12:07:35;;;;;;;;;;;15.40;99.90;;;;;;4855515;29;19998;-73
2023/10/03 12:10:00;;;;;;;;;;;15.30;99.90;;;;;;4841908;29;20011;-74
2023/10/03 12:12:27;;;;;;;;;;;15.20;99.90;;;;;;4841094;29;20012;-75
2023/10/03 12:14:54;;;;;;;;;;;15.10;99.90;;;;;;4838923;29;19924;-73
2023/10/03 12:17:20;;;;;;;;;;;15.00;99.90;;;;;;4825873;29;19928;-73
2023/10/03 12:19:47;;;;;;;;;;;14.90;99.90;;;;;;4841349;29;19980;-73
2023/10/03 12:22:13;;;;;;;;;;;14.90;99.90;;;;;;4857061;29;19923;-74
2023/10/03 12:24:39;;;;;;;;;;;14.80;99.90;;;;;;4825347;29;20369;-74
2023/10/03 12:27:05;;;;;;;;;;;14.80;99.90;;;;;;4856464;29;20423;-74
2023/10/03 12:29:32;;;;;;;;;;;14.70;99.90;;;;;;4845406;29;20364;-74
2023/10/03 12:31:58;;;;;;;;;;;14.70;99.90;;;;;;4845090;29;19924;-74
2023/10/03 12:34:25;;;;;;;;;;;14.80;99.90;;;;;;4843593;29;20428;-74
2023/10/03 12:36:51;;;;;;;;;;;14.80;99.90;;;;;;4844261;29;20356;-74
2023/10/03 12:39:18;;;;;;;;;;;15.00;99.90;;;;;;4839218;29;19934;-74
2023/10/03 12:41:46;;;;;;;;;;;15.00;99.90;;;;;;4814136;29;19924;-74
2023/10/03 12:44:12;;;;;;;;;;;15.00;99.90;;;;;;4858662;29;19930;-74
2023/10/03 12:46:39;;;;;;;;;;;15.10;99.90;;;;;;4844131;29;19924;-74
2023/10/03 12:49:07;;;;;;;;;;;15.10;99.90;;;;;;4849443;29;19951;-74
2023/10/03 12:51:32;;;;;;;;;;;15.10;99.90;;;;;;4863332;29;19942;-74
2023/10/03 12:53:58;;;;;;;;;;;15.10;99.90;;;;;;4863335;29;20447;-74
2023/10/03 12:56:24;;;;;;;;;;;15.20;99.90;;;;;;4863590;29;20407;-74
2023/10/03 12:58:50;;;;;;;;;;;15.20;99.90;;;;;;4862964;29;20367;-74
2023/10/03 13:01:15;;;;;;;;;;;15.20;99.90;;;;;;4863374;29;19919;-75
2023/10/03 13:03:42;;;;;;;;;;;15.30;99.90;;;;;;4847320;29;20364;-79
2023/10/03 13:06:08;;;;;;;;;;;15.30;99.90;;;;;;4859649;29;19931;-74
2023/10/03 13:08:34;;;;;;;;;;;15.30;99.90;;;;;;4856968;29;20032;-74
2023/10/03 13:11:05;;;;;;;;;;;15.40;99.90;;;;;;4860273;29;19920;-74
2023/10/03 13:13:31;;;;;;;;;;;15.50;99.90;;;;;;4843468;29;19928;-74
2023/10/03 13:15:57;;;;;;;;;;;15.70;99.90;;;;;;4842944;29;19931;-74
2023/10/03 13:18:26;;;;;;;;;;;15.80;99.90;;;;;;4842920;29;19932;-74
2023/10/03 13:20:55;;;;;;;;;;;16.00;99.90;;;;;;4841371;29;20005;-75
2023/10/03 13:23:20;;;;;;;;;;;16.30;99.90;;;;;;4842551;29;19927;-76
2023/10/03 13:25:46;;;;;;;;;;;16.50;99.90;;;;;;4842526;29;19927;-74
2023/10/03 13:28:13;;;;;;;;;;;16.50;99.90;;;;;;4841641;29;19947;-73
2023/10/03 13:30:38;;;;;;;;;;;16.50;99.90;;;;;;4841096;29;20360;-73
2023/10/03 13:33:04;;;;;;;;;;;16.40;99.90;;;;;;4826670;29;19984;-74
2023/10/03 13:35:30;;;;;;;;;;;16.50;99.90;;;;;;4839333;29;19931;-74
2023/10/03 13:37:56;;;;;;;;;;;16.50;99.90;;;;;;4842396;29;20403;-74
2023/10/03 13:40:22;;;;;;;;;;;16.50;99.90;;;;;;4834942;29;20015;-74
2023/10/03 13:42:48;;;;;;;;;;;16.50;99.90;;;;;;4843455;29;19984;-74
2023/10/03 13:45:14;;;;;;;;;;;16.50;99.90;;;;;;4841834;29;19939;-74
2023/10/03 13:47:41;;;;;;;;;;;16.60;99.90;;;;;;4841168;29;19953;-74
2023/10/03 13:50:09;;;;;;;;;;;16.50;99.90;;;;;;4841796;29;20295;-74
2023/10/03 13:52:37;;;;;;;;;;;16.70;99.90;;;;;;4842829;29;20002;-74
2023/10/03 13:55:06;;;;;;;;;;;16.90;99.90;;;;;;4840280;29;20010;-74